<?xml version='1.0' encoding='UTF-8'?>
<gpx version="1.1" creator="https://www.komoot.de" xmlns="http://www.topografix.com/GPX/1/1" xmlns:xsi="http://www.w3.org/2001/XMLSchema-instance" xsi:schemaLocation="http://www.topografix.com/GPX/1/1 http://www.topografix.com/GPX/1/1/gpx.xsd">
  <metadata>
    <name>Ville-Seen-Wanderweg 10 km von Alt-Hürth</name>
    <author>
      <link href="https://www.komoot.de">
        <text>komoot</text>
        <type>text/html</type>
      </link>
    </author>
  </metadata>
  <trk>
    <name>Ville-Seen-Wanderweg 10 km von Alt-Hürth</name>
    <trkseg>
      <trkpt lat="50.869552" lon="6.865370">
        <ele>91.716308</ele>
        <time>2023-11-13T17:59:36.676Z</time>
      </trkpt>
      <trkpt lat="50.869456" lon="6.865180">
        <ele>91.716308</ele>
        <time>2023-11-13T17:59:52.059Z</time>
      </trkpt>
      <trkpt lat="50.869253" lon="6.865484">
        <ele>91.716308</ele>
        <time>2023-11-13T18:00:20.182Z</time>
      </trkpt>
      <trkpt lat="50.869167" lon="6.865540">
        <ele>91.716308</ele>
        <time>2023-11-13T18:00:29.490Z</time>
      </trkpt>
      <trkpt lat="50.869125" lon="6.865595">
        <ele>91.716308</ele>
        <time>2023-11-13T18:00:34.936Z</time>
      </trkpt>
      <trkpt lat="50.868569" lon="6.866328">
        <ele>92.178340</ele>
        <time>2023-11-13T18:01:47.396Z</time>
      </trkpt>
      <trkpt lat="50.868733" lon="6.866696">
        <ele>92.503223</ele>
        <time>2023-11-13T18:02:15.832Z</time>
      </trkpt>
      <trkpt lat="50.868939" lon="6.867066">
        <ele>92.859041</ele>
        <time>2023-11-13T18:02:47.087Z</time>
      </trkpt>
      <trkpt lat="50.869046" lon="6.867316">
        <ele>93.076879</ele>
        <time>2023-11-13T18:03:06.236Z</time>
      </trkpt>
      <trkpt lat="50.869532" lon="6.868443">
        <ele>95.276591</ele>
        <time>2023-11-13T18:04:40.869Z</time>
      </trkpt>
      <trkpt lat="50.869699" lon="6.868747">
        <ele>96.786912</ele>
        <time>2023-11-13T18:05:11.053Z</time>
      </trkpt>
      <trkpt lat="50.870122" lon="6.869143">
        <ele>99.704240</ele>
        <time>2023-11-13T18:06:10.306Z</time>
      </trkpt>
      <trkpt lat="50.869979" lon="6.869397">
        <ele>100.979757</ele>
        <time>2023-11-13T18:06:36.840Z</time>
      </trkpt>
      <trkpt lat="50.869843" lon="6.869629">
        <ele>102.166328</ele>
        <time>2023-11-13T18:07:01.574Z</time>
      </trkpt>
      <trkpt lat="50.869765" lon="6.869885">
        <ele>103.231593</ele>
        <time>2023-11-13T18:07:24.468Z</time>
      </trkpt>
      <trkpt lat="50.869761" lon="6.869982">
        <ele>103.595857</ele>
        <time>2023-11-13T18:07:32.358Z</time>
      </trkpt>
      <trkpt lat="50.869822" lon="6.870315">
        <ele>104.921037</ele>
        <time>2023-11-13T18:07:59.775Z</time>
      </trkpt>
      <trkpt lat="50.869862" lon="6.870421">
        <ele>105.410793</ele>
        <time>2023-11-13T18:08:09.809Z</time>
      </trkpt>
      <trkpt lat="50.869929" lon="6.870599">
        <ele>106.232666</ele>
        <time>2023-11-13T18:08:26.833Z</time>
      </trkpt>
      <trkpt lat="50.869961" lon="6.870669">
        <ele>106.575425</ele>
        <time>2023-11-13T18:08:33.681Z</time>
      </trkpt>
      <trkpt lat="50.870342" lon="6.871513">
        <ele>110.690382</ele>
        <time>2023-11-13T18:09:57.919Z</time>
      </trkpt>
      <trkpt lat="50.870533" lon="6.872059">
        <ele>113.165898</ele>
        <time>2023-11-13T18:10:45.546Z</time>
      </trkpt>
      <trkpt lat="50.870625" lon="6.872275">
        <ele>114.199259</ele>
        <time>2023-11-13T18:11:03.519Z</time>
      </trkpt>
      <trkpt lat="50.870568" lon="6.872296">
        <ele>114.566978</ele>
        <time>2023-11-13T18:11:10.441Z</time>
      </trkpt>
      <trkpt lat="50.870530" lon="6.872262">
        <ele>114.841190</ele>
        <time>2023-11-13T18:11:15.591Z</time>
      </trkpt>
      <trkpt lat="50.870176" lon="6.871794">
        <ele>116.062618</ele>
        <time>2023-11-13T18:12:05.506Z</time>
      </trkpt>
      <trkpt lat="50.869865" lon="6.871383">
        <ele>116.458749</ele>
        <time>2023-11-13T18:12:47.566Z</time>
      </trkpt>
      <trkpt lat="50.869083" lon="6.870491">
        <ele>117.401274</ele>
        <time>2023-11-13T18:14:24.355Z</time>
      </trkpt>
      <trkpt lat="50.869030" lon="6.870473">
        <ele>117.454295</ele>
        <time>2023-11-13T18:14:29.736Z</time>
      </trkpt>
      <trkpt lat="50.868959" lon="6.870448">
        <ele>117.522496</ele>
        <time>2023-11-13T18:14:37.116Z</time>
      </trkpt>
      <trkpt lat="50.868640" lon="6.870511">
        <ele>117.761858</ele>
        <time>2023-11-13T18:15:09.299Z</time>
      </trkpt>
      <trkpt lat="50.867863" lon="6.871105">
        <ele>118.404220</ele>
        <time>2023-11-13T18:16:36.770Z</time>
      </trkpt>
      <trkpt lat="50.867939" lon="6.871142">
        <ele>118.463420</ele>
        <time>2023-11-13T18:16:45.204Z</time>
      </trkpt>
      <trkpt lat="50.868032" lon="6.871240">
        <ele>118.546582</ele>
        <time>2023-11-13T18:16:56.829Z</time>
      </trkpt>
      <trkpt lat="50.868230" lon="6.871195">
        <ele>118.695520</ele>
        <time>2023-11-13T18:17:18.107Z</time>
      </trkpt>
      <trkpt lat="50.868408" lon="6.871022">
        <ele>118.851003</ele>
        <time>2023-11-13T18:17:40.623Z</time>
      </trkpt>
      <trkpt lat="50.868693" lon="6.870743">
        <ele>119.042642</ele>
        <time>2023-11-13T18:18:16.491Z</time>
      </trkpt>
      <trkpt lat="50.868774" lon="6.870693">
        <ele>119.092288</ele>
        <time>2023-11-13T18:18:25.627Z</time>
      </trkpt>
      <trkpt lat="50.868857" lon="6.870693">
        <ele>119.139689</ele>
        <time>2023-11-13T18:18:34.334Z</time>
      </trkpt>
      <trkpt lat="50.869141" lon="6.870861">
        <ele>119.312817</ele>
        <time>2023-11-13T18:19:06.030Z</time>
      </trkpt>
      <trkpt lat="50.869243" lon="6.871110">
        <ele>119.419809</ele>
        <time>2023-11-13T18:19:25.497Z</time>
      </trkpt>
      <trkpt lat="50.869563" lon="6.871555">
        <ele>119.662960</ele>
        <time>2023-11-13T18:20:08.706Z</time>
      </trkpt>
      <trkpt lat="50.869663" lon="6.871820">
        <ele>119.774243</ele>
        <time>2023-11-13T18:20:28.370Z</time>
      </trkpt>
      <trkpt lat="50.870167" lon="6.872720">
        <ele>117.902977</ele>
        <time>2023-11-13T18:21:46.422Z</time>
      </trkpt>
      <trkpt lat="50.870811" lon="6.873872">
        <ele>114.563859</ele>
        <time>2023-11-13T18:23:32.138Z</time>
      </trkpt>
      <trkpt lat="50.870985" lon="6.875153">
        <ele>111.924957</ele>
        <time>2023-11-13T18:25:04.384Z</time>
      </trkpt>
      <trkpt lat="50.870963" lon="6.875181">
        <ele>111.837969</ele>
        <time>2023-11-13T18:25:07.433Z</time>
      </trkpt>
      <trkpt lat="50.870404" lon="6.875039">
        <ele>110.092701</ele>
        <time>2023-11-13T18:26:07.034Z</time>
      </trkpt>
      <trkpt lat="50.870459" lon="6.875433">
        <ele>109.307662</ele>
        <time>2023-11-13T18:26:33.773Z</time>
      </trkpt>
      <trkpt lat="50.870350" lon="6.875571">
        <ele>108.877559</ele>
        <time>2023-11-13T18:26:48.098Z</time>
      </trkpt>
      <trkpt lat="50.870356" lon="6.875663">
        <ele>108.697623</ele>
        <time>2023-11-13T18:26:54.223Z</time>
      </trkpt>
      <trkpt lat="50.870364" lon="6.875800">
        <ele>108.429957</ele>
        <time>2023-11-13T18:27:03.307Z</time>
      </trkpt>
      <trkpt lat="50.870267" lon="6.876476">
        <ele>108.430447</ele>
        <time>2023-11-13T18:27:47.763Z</time>
      </trkpt>
      <trkpt lat="50.869991" lon="6.876960">
        <ele>108.762098</ele>
        <time>2023-11-13T18:28:29.551Z</time>
      </trkpt>
      <trkpt lat="50.870707" lon="6.877622">
        <ele>109.429935</ele>
        <time>2023-11-13T18:29:58.890Z</time>
      </trkpt>
      <trkpt lat="50.871109" lon="6.877947">
        <ele>109.387318</ele>
        <time>2023-11-13T18:30:47.710Z</time>
      </trkpt>
      <trkpt lat="50.871252" lon="6.877894">
        <ele>109.257358</ele>
        <time>2023-11-13T18:31:03.046Z</time>
      </trkpt>
      <trkpt lat="50.871376" lon="6.877798">
        <ele>109.135231</ele>
        <time>2023-11-13T18:31:17.534Z</time>
      </trkpt>
      <trkpt lat="50.871419" lon="6.877729">
        <ele>109.081076</ele>
        <time>2023-11-13T18:31:23.952Z</time>
      </trkpt>
      <trkpt lat="50.871445" lon="6.877845">
        <ele>109.012332</ele>
        <time>2023-11-13T18:31:31.987Z</time>
      </trkpt>
      <trkpt lat="50.871442" lon="6.877852">
        <ele>109.007607</ele>
        <time>2023-11-13T18:31:32.520Z</time>
      </trkpt>
      <trkpt lat="50.871395" lon="6.877956">
        <ele>108.936172</ele>
        <time>2023-11-13T18:31:41.104Z</time>
      </trkpt>
      <trkpt lat="50.871393" lon="6.878124">
        <ele>108.842336</ele>
        <time>2023-11-13T18:31:52.526Z</time>
      </trkpt>
      <trkpt lat="50.871350" lon="6.878238">
        <ele>108.768168</ele>
        <time>2023-11-13T18:32:01.430Z</time>
      </trkpt>
      <trkpt lat="50.871367" lon="6.878351">
        <ele>108.703295</ele>
        <time>2023-11-13T18:32:08.890Z</time>
      </trkpt>
      <trkpt lat="50.871274" lon="6.878355">
        <ele>108.620966</ele>
        <time>2023-11-13T18:32:18.520Z</time>
      </trkpt>
      <trkpt lat="50.871288" lon="6.878475">
        <ele>108.552817</ele>
        <time>2023-11-13T18:32:26.695Z</time>
      </trkpt>
      <trkpt lat="50.871250" lon="6.878535">
        <ele>108.505346</ele>
        <time>2023-11-13T18:32:32.400Z</time>
      </trkpt>
      <trkpt lat="50.871263" lon="6.878577">
        <ele>108.479222</ele>
        <time>2023-11-13T18:32:35.515Z</time>
      </trkpt>
      <trkpt lat="50.871311" lon="6.878590">
        <ele>108.436129</ele>
        <time>2023-11-13T18:32:40.510Z</time>
      </trkpt>
      <trkpt lat="50.871341" lon="6.878725">
        <ele>108.356201</ele>
        <time>2023-11-13T18:32:49.573Z</time>
      </trkpt>
      <trkpt lat="50.871383" lon="6.878926">
        <ele>108.237960</ele>
        <time>2023-11-13T18:33:03.516Z</time>
      </trkpt>
      <trkpt lat="50.871414" lon="6.879075">
        <ele>108.150346</ele>
        <time>2023-11-13T18:33:13.918Z</time>
      </trkpt>
      <trkpt lat="50.871377" lon="6.879377">
        <ele>108.021313</ele>
        <time>2023-11-13T18:33:33.616Z</time>
      </trkpt>
      <trkpt lat="50.871392" lon="6.879728">
        <ele>108.107523</ele>
        <time>2023-11-13T18:33:56.618Z</time>
      </trkpt>
      <trkpt lat="50.871317" lon="6.880184">
        <ele>108.222999</ele>
        <time>2023-11-13T18:34:26.498Z</time>
      </trkpt>
      <trkpt lat="50.871026" lon="6.879981">
        <ele>108.346463</ele>
        <time>2023-11-13T18:34:58.318Z</time>
      </trkpt>
      <trkpt lat="50.870883" lon="6.879881">
        <ele>108.407159</ele>
        <time>2023-11-13T18:35:14.143Z</time>
      </trkpt>
      <trkpt lat="50.870107" lon="6.879221">
        <ele>109.053658</ele>
        <time>2023-11-13T18:36:45.498Z</time>
      </trkpt>
      <trkpt lat="50.869990" lon="6.879087">
        <ele>109.511887</ele>
        <time>2023-11-13T18:37:01.693Z</time>
      </trkpt>
      <trkpt lat="50.869967" lon="6.879061">
        <ele>109.601567</ele>
        <time>2023-11-13T18:37:04.865Z</time>
      </trkpt>
      <trkpt lat="50.869851" lon="6.878908">
        <ele>110.080638</ele>
        <time>2023-11-13T18:37:22.273Z</time>
      </trkpt>
      <trkpt lat="50.869756" lon="6.878693">
        <ele>110.606394</ele>
        <time>2023-11-13T18:37:41.200Z</time>
      </trkpt>
      <trkpt lat="50.869564" lon="6.878412">
        <ele>111.436015</ele>
        <time>2023-11-13T18:38:10.974Z</time>
      </trkpt>
      <trkpt lat="50.869283" lon="6.878129">
        <ele>112.492873</ele>
        <time>2023-11-13T18:38:48.574Z</time>
      </trkpt>
      <trkpt lat="50.868851" lon="6.877738">
        <ele>114.072052</ele>
        <time>2023-11-13T18:39:44.492Z</time>
      </trkpt>
      <trkpt lat="50.868792" lon="6.877688">
        <ele>114.284431</ele>
        <time>2023-11-13T18:39:51.987Z</time>
      </trkpt>
      <trkpt lat="50.868334" lon="6.877251">
        <ele>115.402221</ele>
        <time>2023-11-13T18:40:50.740Z</time>
      </trkpt>
      <trkpt lat="50.868291" lon="6.877210">
        <ele>115.502580</ele>
        <time>2023-11-13T18:40:56.104Z</time>
      </trkpt>
      <trkpt lat="50.866601" lon="6.875617">
        <ele>118.794430</ele>
        <time>2023-11-13T18:44:23.701Z</time>
      </trkpt>
      <trkpt lat="50.866337" lon="6.875368">
        <ele>119.132087</ele>
        <time>2023-11-13T18:44:55.927Z</time>
      </trkpt>
      <trkpt lat="50.865473" lon="6.874539">
        <ele>120.042791</ele>
        <time>2023-11-13T18:46:39.457Z</time>
      </trkpt>
      <trkpt lat="50.865403" lon="6.874471">
        <ele>120.061799</ele>
        <time>2023-11-13T18:46:47.802Z</time>
      </trkpt>
      <trkpt lat="50.865361" lon="6.874469">
        <ele>120.071527</ele>
        <time>2023-11-13T18:46:52.173Z</time>
      </trkpt>
      <trkpt lat="50.865323" lon="6.874587">
        <ele>120.090882</ele>
        <time>2023-11-13T18:47:00.604Z</time>
      </trkpt>
      <trkpt lat="50.865225" lon="6.874475">
        <ele>120.118855</ele>
        <time>2023-11-13T18:47:12.811Z</time>
      </trkpt>
      <trkpt lat="50.864797" lon="6.873986">
        <ele>120.241011</ele>
        <time>2023-11-13T18:48:05.934Z</time>
      </trkpt>
      <trkpt lat="50.864764" lon="6.873909">
        <ele>120.254610</ele>
        <time>2023-11-13T18:48:11.847Z</time>
      </trkpt>
      <trkpt lat="50.864736" lon="6.873837">
        <ele>120.266967</ele>
        <time>2023-11-13T18:48:17.193Z</time>
      </trkpt>
      <trkpt lat="50.864706" lon="6.873757">
        <ele>120.280563</ele>
        <time>2023-11-13T18:48:23.113Z</time>
      </trkpt>
      <trkpt lat="50.864634" lon="6.873808">
        <ele>120.298821</ele>
        <time>2023-11-13T18:48:31.013Z</time>
      </trkpt>
      <trkpt lat="50.864587" lon="6.873837">
        <ele>120.310497</ele>
        <time>2023-11-13T18:48:36.105Z</time>
      </trkpt>
      <trkpt lat="50.864631" lon="6.873959">
        <ele>120.331028</ele>
        <time>2023-11-13T18:48:45.025Z</time>
      </trkpt>
      <trkpt lat="50.864671" lon="6.874069">
        <ele>120.349577</ele>
        <time>2023-11-13T18:48:53.117Z</time>
      </trkpt>
      <trkpt lat="50.864717" lon="6.874107">
        <ele>120.361587</ele>
        <time>2023-11-13T18:48:58.343Z</time>
      </trkpt>
      <trkpt lat="50.864705" lon="6.874231">
        <ele>120.379916</ele>
        <time>2023-11-13T18:49:06.288Z</time>
      </trkpt>
      <trkpt lat="50.864668" lon="6.874463">
        <ele>120.444221</ele>
        <time>2023-11-13T18:49:21.458Z</time>
      </trkpt>
      <trkpt lat="50.864563" lon="6.875142">
        <ele>120.882688</ele>
        <time>2023-11-13T18:50:06.090Z</time>
      </trkpt>
      <trkpt lat="50.864462" lon="6.875789">
        <ele>121.300717</ele>
        <time>2023-11-13T18:50:49.596Z</time>
      </trkpt>
      <trkpt lat="50.864352" lon="6.876422">
        <ele>121.712512</ele>
        <time>2023-11-13T18:51:33.286Z</time>
      </trkpt>
      <trkpt lat="50.864311" lon="6.876592">
        <ele>121.826657</ele>
        <time>2023-11-13T18:51:45.327Z</time>
      </trkpt>
      <trkpt lat="50.864224" lon="6.876896">
        <ele>122.036013</ele>
        <time>2023-11-13T18:52:07.430Z</time>
      </trkpt>
      <trkpt lat="50.864093" lon="6.877149">
        <ele>122.271745</ele>
        <time>2023-11-13T18:52:29.228Z</time>
      </trkpt>
      <trkpt lat="50.863978" lon="6.877372">
        <ele>122.567274</ele>
        <time>2023-11-13T18:52:48.467Z</time>
      </trkpt>
      <trkpt lat="50.863722" lon="6.877804">
        <ele>123.175395</ele>
        <time>2023-11-13T18:53:28.360Z</time>
      </trkpt>
      <trkpt lat="50.863339" lon="6.878449">
        <ele>124.084223</ele>
        <time>2023-11-13T18:54:28.314Z</time>
      </trkpt>
      <trkpt lat="50.863310" lon="6.878654">
        <ele>124.299826</ele>
        <time>2023-11-13T18:54:42.494Z</time>
      </trkpt>
      <trkpt lat="50.863317" lon="6.879162">
        <ele>124.821291</ele>
        <time>2023-11-13T18:55:16.229Z</time>
      </trkpt>
      <trkpt lat="50.863320" lon="6.879336">
        <ele>124.999927</ele>
        <time>2023-11-13T18:55:27.710Z</time>
      </trkpt>
      <trkpt lat="50.863324" lon="6.879752">
        <ele>125.169905</ele>
        <time>2023-11-13T18:55:54.891Z</time>
      </trkpt>
      <trkpt lat="50.863219" lon="6.879759">
        <ele>125.198676</ele>
        <time>2023-11-13T18:56:05.808Z</time>
      </trkpt>
      <trkpt lat="50.863015" lon="6.879766">
        <ele>125.254536</ele>
        <time>2023-11-13T18:56:26.922Z</time>
      </trkpt>
      <trkpt lat="50.862766" lon="6.879775">
        <ele>125.322721</ele>
        <time>2023-11-13T18:56:52.591Z</time>
      </trkpt>
      <trkpt lat="50.862453" lon="6.879786">
        <ele>125.408429</ele>
        <time>2023-11-13T18:57:24.564Z</time>
      </trkpt>
      <trkpt lat="50.861410" lon="6.879837">
        <ele>125.104774</ele>
        <time>2023-11-13T18:59:10.088Z</time>
      </trkpt>
      <trkpt lat="50.860692" lon="6.880006">
        <ele>123.906405</ele>
        <time>2023-11-13T19:00:25.310Z</time>
      </trkpt>
      <trkpt lat="50.860534" lon="6.880044">
        <ele>123.642572</ele>
        <time>2023-11-13T19:00:41.949Z</time>
      </trkpt>
      <trkpt lat="50.860443" lon="6.880060">
        <ele>123.491416</ele>
        <time>2023-11-13T19:00:51.485Z</time>
      </trkpt>
      <trkpt lat="50.860204" lon="6.880155">
        <ele>123.084617</ele>
        <time>2023-11-13T19:01:17.260Z</time>
      </trkpt>
      <trkpt lat="50.860133" lon="6.880227">
        <ele>122.945445</ele>
        <time>2023-11-13T19:01:26.080Z</time>
      </trkpt>
      <trkpt lat="50.860051" lon="6.880406">
        <ele>122.714965</ele>
        <time>2023-11-13T19:01:40.663Z</time>
      </trkpt>
      <trkpt lat="50.859987" lon="6.880544">
        <ele>122.554029</ele>
        <time>2023-11-13T19:01:52.077Z</time>
      </trkpt>
      <trkpt lat="50.859817" lon="6.881026">
        <ele>122.075226</ele>
        <time>2023-11-13T19:02:28.727Z</time>
      </trkpt>
      <trkpt lat="50.859710" lon="6.881276">
        <ele>121.813293</ele>
        <time>2023-11-13T19:02:48.593Z</time>
      </trkpt>
      <trkpt lat="50.859640" lon="6.881440">
        <ele>121.641613</ele>
        <time>2023-11-13T19:03:01.657Z</time>
      </trkpt>
      <trkpt lat="50.859551" lon="6.881584">
        <ele>121.466846</ele>
        <time>2023-11-13T19:03:14.961Z</time>
      </trkpt>
      <trkpt lat="50.858699" lon="6.882787">
        <ele>120.379194</ele>
        <time>2023-11-13T19:05:11.092Z</time>
      </trkpt>
      <trkpt lat="50.858439" lon="6.883088">
        <ele>120.721011</ele>
        <time>2023-11-13T19:05:43.956Z</time>
      </trkpt>
      <trkpt lat="50.858340" lon="6.883127">
        <ele>120.829296</ele>
        <time>2023-11-13T19:05:54.554Z</time>
      </trkpt>
      <trkpt lat="50.857815" lon="6.883334">
        <ele>121.403562</ele>
        <time>2023-11-13T19:06:51.117Z</time>
      </trkpt>
      <trkpt lat="50.857318" lon="6.883784">
        <ele>122.011195</ele>
        <time>2023-11-13T19:07:52.294Z</time>
      </trkpt>
      <trkpt lat="50.856815" lon="6.884316">
        <ele>122.668175</ele>
        <time>2023-11-13T19:08:57.405Z</time>
      </trkpt>
      <trkpt lat="50.856708" lon="6.884398">
        <ele>122.797640</ele>
        <time>2023-11-13T19:09:10.073Z</time>
      </trkpt>
      <trkpt lat="50.856260" lon="6.884739">
        <ele>123.339007</ele>
        <time>2023-11-13T19:10:02.894Z</time>
      </trkpt>
      <trkpt lat="50.856205" lon="6.884764">
        <ele>123.401330</ele>
        <time>2023-11-13T19:10:08.936Z</time>
      </trkpt>
      <trkpt lat="50.856089" lon="6.884816">
        <ele>123.532639</ele>
        <time>2023-11-13T19:10:21.374Z</time>
      </trkpt>
      <trkpt lat="50.855003" lon="6.884997">
        <ele>123.428497</ele>
        <time>2023-11-13T19:12:12.096Z</time>
      </trkpt>
      <trkpt lat="50.854998" lon="6.884834">
        <ele>123.328476</ele>
        <time>2023-11-13T19:12:22.743Z</time>
      </trkpt>
      <trkpt lat="50.854981" lon="6.884361">
        <ele>123.038105</ele>
        <time>2023-11-13T19:12:53.490Z</time>
      </trkpt>
      <trkpt lat="50.854961" lon="6.883774">
        <ele>122.677808</ele>
        <time>2023-11-13T19:13:31.772Z</time>
      </trkpt>
      <trkpt lat="50.854979" lon="6.882963">
        <ele>122.323557</ele>
        <time>2023-11-13T19:14:24.287Z</time>
      </trkpt>
      <trkpt lat="50.855021" lon="6.881869">
        <ele>122.514684</ele>
        <time>2023-11-13T19:15:34.486Z</time>
      </trkpt>
      <trkpt lat="50.855026" lon="6.881766">
        <ele>122.532699</ele>
        <time>2023-11-13T19:15:41.071Z</time>
      </trkpt>
      <trkpt lat="50.855057" lon="6.880930">
        <ele>122.678735</ele>
        <time>2023-11-13T19:16:35.550Z</time>
      </trkpt>
      <trkpt lat="50.855004" lon="6.879629">
        <ele>123.151606</ele>
        <time>2023-11-13T19:18:03.057Z</time>
      </trkpt>
      <trkpt lat="50.854983" lon="6.879090">
        <ele>123.442768</ele>
        <time>2023-11-13T19:18:39.458Z</time>
      </trkpt>
      <trkpt lat="50.854898" lon="6.876718">
        <ele>124.142179</ele>
        <time>2023-11-13T19:21:10.763Z</time>
      </trkpt>
      <trkpt lat="50.854940" lon="6.876049">
        <ele>123.976138</ele>
        <time>2023-11-13T19:21:53.730Z</time>
      </trkpt>
      <trkpt lat="50.855146" lon="6.875032">
        <ele>123.712354</ele>
        <time>2023-11-13T19:23:01.889Z</time>
      </trkpt>
      <trkpt lat="50.855180" lon="6.874889">
        <ele>123.674616</ele>
        <time>2023-11-13T19:23:11.805Z</time>
      </trkpt>
      <trkpt lat="50.855372" lon="6.875033">
        <ele>123.569312</ele>
        <time>2023-11-13T19:23:33.298Z</time>
      </trkpt>
      <trkpt lat="50.856139" lon="6.875613">
        <ele>122.988324</ele>
        <time>2023-11-13T19:25:00.418Z</time>
      </trkpt>
      <trkpt lat="50.856127" lon="6.875965">
        <ele>122.836205</ele>
        <time>2023-11-13T19:25:22.970Z</time>
      </trkpt>
      <trkpt lat="50.856323" lon="6.876038">
        <ele>122.698569</ele>
        <time>2023-11-13T19:25:43.427Z</time>
      </trkpt>
      <trkpt lat="50.856736" lon="6.876191">
        <ele>122.408630</ele>
        <time>2023-11-13T19:26:26.030Z</time>
      </trkpt>
      <trkpt lat="50.857402" lon="6.876638">
        <ele>122.214872</ele>
        <time>2023-11-13T19:27:38.839Z</time>
      </trkpt>
      <trkpt lat="50.857575" lon="6.876867">
        <ele>122.157808</ele>
        <time>2023-11-13T19:28:01.616Z</time>
      </trkpt>
      <trkpt lat="50.857877" lon="6.876923">
        <ele>122.080844</ele>
        <time>2023-11-13T19:28:32.355Z</time>
      </trkpt>
      <trkpt lat="50.858025" lon="6.876970">
        <ele>122.042637</ele>
        <time>2023-11-13T19:28:47.573Z</time>
      </trkpt>
      <trkpt lat="50.858689" lon="6.877185">
        <ele>121.976659</ele>
        <time>2023-11-13T19:29:55.496Z</time>
      </trkpt>
      <trkpt lat="50.859387" lon="6.877356">
        <ele>122.086825</ele>
        <time>2023-11-13T19:31:07.912Z</time>
      </trkpt>
      <trkpt lat="50.859841" lon="6.877407">
        <ele>122.157817</ele>
        <time>2023-11-13T19:31:54.033Z</time>
      </trkpt>
      <trkpt lat="50.860047" lon="6.877430">
        <ele>122.190028</ele>
        <time>2023-11-13T19:32:14.769Z</time>
      </trkpt>
      <trkpt lat="50.860069" lon="6.877450">
        <ele>122.193984</ele>
        <time>2023-11-13T19:32:17.318Z</time>
      </trkpt>
      <trkpt lat="50.860077" lon="6.877758">
        <ele>122.193290</ele>
        <time>2023-11-13T19:32:36.935Z</time>
      </trkpt>
      <trkpt lat="50.860079" lon="6.877801">
        <ele>122.179671</ele>
        <time>2023-11-13T19:32:39.723Z</time>
      </trkpt>
      <trkpt lat="50.860140" lon="6.877922">
        <ele>122.130759</ele>
        <time>2023-11-13T19:32:49.683Z</time>
      </trkpt>
      <trkpt lat="50.860209" lon="6.877920">
        <ele>122.096226</ele>
        <time>2023-11-13T19:32:56.559Z</time>
      </trkpt>
      <trkpt lat="50.860373" lon="6.877806">
        <ele>122.006610</ele>
        <time>2023-11-13T19:33:14.627Z</time>
      </trkpt>
      <trkpt lat="50.860510" lon="6.877681">
        <ele>121.927499</ele>
        <time>2023-11-13T19:33:30.698Z</time>
      </trkpt>
      <trkpt lat="50.860678" lon="6.877604">
        <ele>121.839986</ele>
        <time>2023-11-13T19:33:48.408Z</time>
      </trkpt>
      <trkpt lat="50.861210" lon="6.877360">
        <ele>121.562845</ele>
        <time>2023-11-13T19:34:44.627Z</time>
      </trkpt>
      <trkpt lat="50.861500" lon="6.877226">
        <ele>121.411685</ele>
        <time>2023-11-13T19:35:15.317Z</time>
      </trkpt>
      <trkpt lat="50.861599" lon="6.877485">
        <ele>121.318036</ele>
        <time>2023-11-13T19:35:34.671Z</time>
      </trkpt>
      <trkpt lat="50.861732" lon="6.877443">
        <ele>121.403775</ele>
        <time>2023-11-13T19:35:48.491Z</time>
      </trkpt>
      <trkpt lat="50.862521" lon="6.877192">
        <ele>121.912554</ele>
        <time>2023-11-13T19:37:09.108Z</time>
      </trkpt>
      <trkpt lat="50.862614" lon="6.877170">
        <ele>121.972002</ele>
        <time>2023-11-13T19:37:18.994Z</time>
      </trkpt>
      <trkpt lat="50.862678" lon="6.877192">
        <ele>122.013406</ele>
        <time>2023-11-13T19:37:25.869Z</time>
      </trkpt>
      <trkpt lat="50.862820" lon="6.877366">
        <ele>122.126899</ele>
        <time>2023-11-13T19:37:44.574Z</time>
      </trkpt>
      <trkpt lat="50.862873" lon="6.877502">
        <ele>122.190680</ele>
        <time>2023-11-13T19:37:55.369Z</time>
      </trkpt>
      <trkpt lat="50.862880" lon="6.877522">
        <ele>122.199806</ele>
        <time>2023-11-13T19:37:56.974Z</time>
      </trkpt>
      <trkpt lat="50.862950" lon="6.877833">
        <ele>122.331563</ele>
        <time>2023-11-13T19:38:19.081Z</time>
      </trkpt>
      <trkpt lat="50.862948" lon="6.877981">
        <ele>122.390635</ele>
        <time>2023-11-13T19:38:28.963Z</time>
      </trkpt>
      <trkpt lat="50.862926" lon="6.878151">
        <ele>122.466121</ele>
        <time>2023-11-13T19:38:40.782Z</time>
      </trkpt>
      <trkpt lat="50.862870" lon="6.878314">
        <ele>122.619588</ele>
        <time>2023-11-13T19:38:53.145Z</time>
      </trkpt>
      <trkpt lat="50.862667" lon="6.878670">
        <ele>123.016330</ele>
        <time>2023-11-13T19:39:25.315Z</time>
      </trkpt>
      <trkpt lat="50.862239" lon="6.879009">
        <ele>123.643252</ele>
        <time>2023-11-13T19:40:15.567Z</time>
      </trkpt>
      <trkpt lat="50.862248" lon="6.879132">
        <ele>123.745649</ele>
        <time>2023-11-13T19:40:23.868Z</time>
      </trkpt>
      <trkpt lat="50.862305" lon="6.879315">
        <ele>123.914406</ele>
        <time>2023-11-13T19:40:37.525Z</time>
      </trkpt>
      <trkpt lat="50.862387" lon="6.879576">
        <ele>124.155501</ele>
        <time>2023-11-13T19:40:56.708Z</time>
      </trkpt>
      <trkpt lat="50.862453" lon="6.879786">
        <ele>124.349499</ele>
        <time>2023-11-13T19:41:12.360Z</time>
      </trkpt>
      <trkpt lat="50.862766" lon="6.879775">
        <ele>124.759682</ele>
        <time>2023-11-13T19:41:44.894Z</time>
      </trkpt>
      <trkpt lat="50.863015" lon="6.879766">
        <ele>124.648875</ele>
        <time>2023-11-13T19:42:10.211Z</time>
      </trkpt>
      <trkpt lat="50.863219" lon="6.879759">
        <ele>124.491905</ele>
        <time>2023-11-13T19:42:30.879Z</time>
      </trkpt>
      <trkpt lat="50.863324" lon="6.879752">
        <ele>124.411059</ele>
        <time>2023-11-13T19:42:41.476Z</time>
      </trkpt>
      <trkpt lat="50.863320" lon="6.879336">
        <ele>124.209046</ele>
        <time>2023-11-13T19:43:07.876Z</time>
      </trkpt>
      <trkpt lat="50.863317" lon="6.879162">
        <ele>124.124529</ele>
        <time>2023-11-13T19:43:19.094Z</time>
      </trkpt>
      <trkpt lat="50.863310" lon="6.878654">
        <ele>123.877811</ele>
        <time>2023-11-13T19:43:52.041Z</time>
      </trkpt>
      <trkpt lat="50.863339" lon="6.878449">
        <ele>123.775804</ele>
        <time>2023-11-13T19:44:05.844Z</time>
      </trkpt>
      <trkpt lat="50.863722" lon="6.877804">
        <ele>123.272335</ele>
        <time>2023-11-13T19:45:04.135Z</time>
      </trkpt>
      <trkpt lat="50.863978" lon="6.877372">
        <ele>122.723958</ele>
        <time>2023-11-13T19:45:43.009Z</time>
      </trkpt>
      <trkpt lat="50.864093" lon="6.877149">
        <ele>122.457463</ele>
        <time>2023-11-13T19:46:01.799Z</time>
      </trkpt>
      <trkpt lat="50.864224" lon="6.876896">
        <ele>122.154626</ele>
        <time>2023-11-13T19:46:23.114Z</time>
      </trkpt>
      <trkpt lat="50.864311" lon="6.876592">
        <ele>121.845730</ele>
        <time>2023-11-13T19:46:44.812Z</time>
      </trkpt>
      <trkpt lat="50.864352" lon="6.876422">
        <ele>121.677314</ele>
        <time>2023-11-13T19:46:56.627Z</time>
      </trkpt>
      <trkpt lat="50.864462" lon="6.875789">
        <ele>121.069728</ele>
        <time>2023-11-13T19:47:39.397Z</time>
      </trkpt>
      <trkpt lat="50.864563" lon="6.875142">
        <ele>120.762729</ele>
        <time>2023-11-13T19:48:22.324Z</time>
      </trkpt>
      <trkpt lat="50.864705" lon="6.874231">
        <ele>120.693145</ele>
        <time>2023-11-13T19:49:21.852Z</time>
      </trkpt>
      <trkpt lat="50.864717" lon="6.874107">
        <ele>120.683842</ele>
        <time>2023-11-13T19:49:29.893Z</time>
      </trkpt>
      <trkpt lat="50.864671" lon="6.874069">
        <ele>120.677747</ele>
        <time>2023-11-13T19:49:35.204Z</time>
      </trkpt>
      <trkpt lat="50.864631" lon="6.873959">
        <ele>120.668333</ele>
        <time>2023-11-13T19:49:43.413Z</time>
      </trkpt>
      <trkpt lat="50.864587" lon="6.873837">
        <ele>120.657913</ele>
        <time>2023-11-13T19:49:52.438Z</time>
      </trkpt>
      <trkpt lat="50.864634" lon="6.873808">
        <ele>120.651987</ele>
        <time>2023-11-13T19:49:57.656Z</time>
      </trkpt>
      <trkpt lat="50.864706" lon="6.873757">
        <ele>120.642721</ele>
        <time>2023-11-13T19:50:05.684Z</time>
      </trkpt>
      <trkpt lat="50.864736" lon="6.873837">
        <ele>120.635821</ele>
        <time>2023-11-13T19:50:11.725Z</time>
      </trkpt>
      <trkpt lat="50.864764" lon="6.873909">
        <ele>120.629550</ele>
        <time>2023-11-13T19:50:17.168Z</time>
      </trkpt>
      <trkpt lat="50.864797" lon="6.873986">
        <ele>120.622648</ele>
        <time>2023-11-13T19:50:23.184Z</time>
      </trkpt>
      <trkpt lat="50.865225" lon="6.874475">
        <ele>120.399001</ele>
        <time>2023-11-13T19:51:16.118Z</time>
      </trkpt>
      <trkpt lat="50.865323" lon="6.874587">
        <ele>120.255445</ele>
        <time>2023-11-13T19:51:28.287Z</time>
      </trkpt>
      <trkpt lat="50.865361" lon="6.874469">
        <ele>120.156113</ele>
        <time>2023-11-13T19:51:36.665Z</time>
      </trkpt>
      <trkpt lat="50.865403" lon="6.874471">
        <ele>120.106192</ele>
        <time>2023-11-13T19:51:40.964Z</time>
      </trkpt>
      <trkpt lat="50.865494" lon="6.874478">
        <ele>119.997953</ele>
        <time>2023-11-13T19:51:50.122Z</time>
      </trkpt>
      <trkpt lat="50.865562" lon="6.874464">
        <ele>119.916486</ele>
        <time>2023-11-13T19:51:57.012Z</time>
      </trkpt>
      <trkpt lat="50.865788" lon="6.874415">
        <ele>119.645486</ele>
        <time>2023-11-13T19:52:19.987Z</time>
      </trkpt>
      <trkpt lat="50.866058" lon="6.874257">
        <ele>119.303535</ele>
        <time>2023-11-13T19:52:48.875Z</time>
      </trkpt>
      <trkpt lat="50.866216" lon="6.874121">
        <ele>119.089913</ele>
        <time>2023-11-13T19:53:07.292Z</time>
      </trkpt>
      <trkpt lat="50.866354" lon="6.874057">
        <ele>118.919084</ele>
        <time>2023-11-13T19:53:22.076Z</time>
      </trkpt>
      <trkpt lat="50.866480" lon="6.874000">
        <ele>118.763408</ele>
        <time>2023-11-13T19:53:35.689Z</time>
      </trkpt>
      <trkpt lat="50.866581" lon="6.874000">
        <ele>118.643416</ele>
        <time>2023-11-13T19:53:46.387Z</time>
      </trkpt>
      <trkpt lat="50.866691" lon="6.874083">
        <ele>118.498669</ele>
        <time>2023-11-13T19:53:59.402Z</time>
      </trkpt>
      <trkpt lat="50.867171" lon="6.874441">
        <ele>116.415187</ele>
        <time>2023-11-13T19:54:57.508Z</time>
      </trkpt>
      <trkpt lat="50.867286" lon="6.874577">
        <ele>115.812433</ele>
        <time>2023-11-13T19:55:13.050Z</time>
      </trkpt>
      <trkpt lat="50.867454" lon="6.874699">
        <ele>115.036187</ele>
        <time>2023-11-13T19:55:33.566Z</time>
      </trkpt>
      <trkpt lat="50.867793" lon="6.874806">
        <ele>113.584281</ele>
        <time>2023-11-13T19:56:11.516Z</time>
      </trkpt>
      <trkpt lat="50.867823" lon="6.874489">
        <ele>112.734548</ele>
        <time>2023-11-13T19:56:33.435Z</time>
      </trkpt>
      <trkpt lat="50.867835" lon="6.874358">
        <ele>112.383640</ele>
        <time>2023-11-13T19:56:42.585Z</time>
      </trkpt>
      <trkpt lat="50.867886" lon="6.874219">
        <ele>111.957418</ele>
        <time>2023-11-13T19:56:53.673Z</time>
      </trkpt>
      <trkpt lat="50.868054" lon="6.874041">
        <ele>111.108529</ele>
        <time>2023-11-13T19:57:15.455Z</time>
      </trkpt>
      <trkpt lat="50.868102" lon="6.873888">
        <ele>110.807216</ele>
        <time>2023-11-13T19:57:27.329Z</time>
      </trkpt>
      <trkpt lat="50.868181" lon="6.874142">
        <ele>110.549397</ele>
        <time>2023-11-13T19:57:46.517Z</time>
      </trkpt>
      <trkpt lat="50.868242" lon="6.874245">
        <ele>110.420793</ele>
        <time>2023-11-13T19:57:56.235Z</time>
      </trkpt>
      <trkpt lat="50.868311" lon="6.874283">
        <ele>110.315409</ele>
        <time>2023-11-13T19:58:04.334Z</time>
      </trkpt>
      <trkpt lat="50.868457" lon="6.874363">
        <ele>110.092542</ele>
        <time>2023-11-13T19:58:20.857Z</time>
      </trkpt>
      <trkpt lat="50.868696" lon="6.874662">
        <ele>109.653232</ele>
        <time>2023-11-13T19:58:53.043Z</time>
      </trkpt>
      <trkpt lat="50.869057" lon="6.875115">
        <ele>108.988899</ele>
        <time>2023-11-13T19:59:39.283Z</time>
      </trkpt>
      <trkpt lat="50.869431" lon="6.875452">
        <ele>108.368206</ele>
        <time>2023-11-13T20:00:23.661Z</time>
      </trkpt>
      <trkpt lat="50.869622" lon="6.875576">
        <ele>108.394110</ele>
        <time>2023-11-13T20:00:45.790Z</time>
      </trkpt>
      <trkpt lat="50.869703" lon="6.875786">
        <ele>108.497814</ele>
        <time>2023-11-13T20:01:01.434Z</time>
      </trkpt>
      <trkpt lat="50.869766" lon="6.876421">
        <ele>108.768664</ele>
        <time>2023-11-13T20:01:43.729Z</time>
      </trkpt>
      <trkpt lat="50.869715" lon="6.876472">
        <ele>108.808929</ele>
        <time>2023-11-13T20:01:50.318Z</time>
      </trkpt>
      <trkpt lat="50.869714" lon="6.876473">
        <ele>108.809718</ele>
        <time>2023-11-13T20:01:50.464Z</time>
      </trkpt>
      <trkpt lat="50.869665" lon="6.876627">
        <ele>108.882389</ele>
        <time>2023-11-13T20:02:02.253Z</time>
      </trkpt>
      <trkpt lat="50.869908" lon="6.876874">
        <ele>109.075145</ele>
        <time>2023-11-13T20:02:32.308Z</time>
      </trkpt>
      <trkpt lat="50.869991" lon="6.876960">
        <ele>109.141358</ele>
        <time>2023-11-13T20:02:42.677Z</time>
      </trkpt>
      <trkpt lat="50.870707" lon="6.877622">
        <ele>109.540585</ele>
        <time>2023-11-13T20:04:06.408Z</time>
      </trkpt>
      <trkpt lat="50.871109" lon="6.877947">
        <ele>109.612069</ele>
        <time>2023-11-13T20:04:52.781Z</time>
      </trkpt>
      <trkpt lat="50.871252" lon="6.877894">
        <ele>109.635331</ele>
        <time>2023-11-13T20:05:08.079Z</time>
      </trkpt>
      <trkpt lat="50.871376" lon="6.877798">
        <ele>109.657191</ele>
        <time>2023-11-13T20:05:22.007Z</time>
      </trkpt>
      <trkpt lat="50.871419" lon="6.877729">
        <ele>109.666885</ele>
        <time>2023-11-13T20:05:28.175Z</time>
      </trkpt>
      <trkpt lat="50.871569" lon="6.877502">
        <ele>109.699739</ele>
        <time>2023-11-13T20:05:49.120Z</time>
      </trkpt>
      <trkpt lat="50.871558" lon="6.877304">
        <ele>109.719607</ele>
        <time>2023-11-13T20:06:02.159Z</time>
      </trkpt>
      <trkpt lat="50.871543" lon="6.877000">
        <ele>109.750087</ele>
        <time>2023-11-13T20:06:22.454Z</time>
      </trkpt>
      <trkpt lat="50.871485" lon="6.875878">
        <ele>111.135288</ele>
        <time>2023-11-13T20:07:39.858Z</time>
      </trkpt>
      <trkpt lat="50.871371" lon="6.874176">
        <ele>113.864732</ele>
        <time>2023-11-13T20:09:39.276Z</time>
      </trkpt>
      <trkpt lat="50.871303" lon="6.873662">
        <ele>114.072276</ele>
        <time>2023-11-13T20:10:16.019Z</time>
      </trkpt>
      <trkpt lat="50.871171" lon="6.873256">
        <ele>113.591629</ele>
        <time>2023-11-13T20:10:46.448Z</time>
      </trkpt>
      <trkpt lat="50.870773" lon="6.872540">
        <ele>112.587472</ele>
        <time>2023-11-13T20:11:47.218Z</time>
      </trkpt>
      <trkpt lat="50.870625" lon="6.872275">
        <ele>112.215052</ele>
        <time>2023-11-13T20:12:10.645Z</time>
      </trkpt>
      <trkpt lat="50.870533" lon="6.872059">
        <ele>111.940800</ele>
        <time>2023-11-13T20:12:28.323Z</time>
      </trkpt>
      <trkpt lat="50.870342" lon="6.871513">
        <ele>111.143042</ele>
        <time>2023-11-13T20:13:12.502Z</time>
      </trkpt>
      <trkpt lat="50.869961" lon="6.870669">
        <ele>106.149401</ele>
        <time>2023-11-13T20:14:28.340Z</time>
      </trkpt>
      <trkpt lat="50.869929" lon="6.870599">
        <ele>105.733451</ele>
        <time>2023-11-13T20:14:34.646Z</time>
      </trkpt>
      <trkpt lat="50.869822" lon="6.870315">
        <ele>104.141746</ele>
        <time>2023-11-13T20:14:59.086Z</time>
      </trkpt>
      <trkpt lat="50.869761" lon="6.869982">
        <ele>102.473122</ele>
        <time>2023-11-13T20:15:24.679Z</time>
      </trkpt>
      <trkpt lat="50.869765" lon="6.869885">
        <ele>102.005337</ele>
        <time>2023-11-13T20:15:31.966Z</time>
      </trkpt>
      <trkpt lat="50.869843" lon="6.869629">
        <ele>100.637335</ele>
        <time>2023-11-13T20:15:53.272Z</time>
      </trkpt>
      <trkpt lat="50.869979" lon="6.869397">
        <ele>99.113552</ele>
        <time>2023-11-13T20:16:16.365Z</time>
      </trkpt>
      <trkpt lat="50.870122" lon="6.869143">
        <ele>97.537340</ele>
        <time>2023-11-13T20:16:41.208Z</time>
      </trkpt>
      <trkpt lat="50.870471" lon="6.868696">
        <ele>95.713250</ele>
        <time>2023-11-13T20:17:32.089Z</time>
      </trkpt>
      <trkpt lat="50.870637" lon="6.868482">
        <ele>94.843392</ele>
        <time>2023-11-13T20:17:56.249Z</time>
      </trkpt>
      <trkpt lat="50.870505" lon="6.868186">
        <ele>93.913645</ele>
        <time>2023-11-13T20:18:21.535Z</time>
      </trkpt>
      <trkpt lat="50.870405" lon="6.867964">
        <ele>93.213979</ele>
        <time>2023-11-13T20:18:40.398Z</time>
      </trkpt>
      <trkpt lat="50.870398" lon="6.867949">
        <ele>93.166123</ele>
        <time>2023-11-13T20:18:41.640Z</time>
      </trkpt>
      <trkpt lat="50.870385" lon="6.867921">
        <ele>93.076953</ele>
        <time>2023-11-13T20:18:44.001Z</time>
      </trkpt>
      <trkpt lat="50.870381" lon="6.867731">
        <ele>92.589291</ele>
        <time>2023-11-13T20:18:56.625Z</time>
      </trkpt>
      <trkpt lat="50.870400" lon="6.867703">
        <ele>92.483822</ele>
        <time>2023-11-13T20:18:59.319Z</time>
      </trkpt>
      <trkpt lat="50.870393" lon="6.867595">
        <ele>92.205322</ele>
        <time>2023-11-13T20:19:06.490Z</time>
      </trkpt>
      <trkpt lat="50.870502" lon="6.867446">
        <ele>91.620175</ele>
        <time>2023-11-13T20:19:21.260Z</time>
      </trkpt>
      <trkpt lat="50.870303" lon="6.867054">
        <ele>90.329642</ele>
        <time>2023-11-13T20:19:53.073Z</time>
      </trkpt>
      <trkpt lat="50.870145" lon="6.866742">
        <ele>90.296721</ele>
        <time>2023-11-13T20:20:18.745Z</time>
      </trkpt>
      <trkpt lat="50.870019" lon="6.866465">
        <ele>90.296721</ele>
        <time>2023-11-13T20:20:40.974Z</time>
      </trkpt>
      <trkpt lat="50.869834" lon="6.865914">
        <ele>90.296721</ele>
        <time>2023-11-13T20:21:21.909Z</time>
      </trkpt>
      <trkpt lat="50.869623" lon="6.865510">
        <ele>90.296721</ele>
        <time>2023-11-13T20:21:56.329Z</time>
      </trkpt>
      <trkpt lat="50.869573" lon="6.865411">
        <ele>90.296721</ele>
        <time>2023-11-13T20:22:04.636Z</time>
      </trkpt>
    </trkseg>
  </trk>
</gpx>